Terminal Aerodrome Forecast
Issued by NWS

Home | Current Version | Previous Version | Text Only | Print | Product List | Glossary On
Versions: 1 2 3 4 5 6 7 8 9 10 11 12 13 14 15 16 17 18 19 20 21
000
FTUS45 KSLC 251120
TAFBCE
TAF
KBCE 251120Z 2512/2612 27006KT P6SM SCT080 BKN150
     FM251600 19007KT P6SM VCSH SCT030 BKN060
     FM251900 31008KT P6SM -RA SCT020 BKN040
     FM260000 29009KT P6SM VCSH SCT030 BKN060=

USA.gov is the U.S. government's official web portal to all federal, state and local government web resources and services.